Предлагаем Вашему вниманию Мобильную версию авиапрогноза Мартуни по модели GA.Corvus
и английскую версию страницы: AUTOTAF.ME 37808 - aviation weather forecast Martuni

AUTOTAF.ME Мартуни - прогноз погоды

Сегодня рассвет 03:32 UTC, восход солнца 04:02 UTC, местный полдень 08:48 UTC, заход солнца 13:33 UTC, наступление темноты 14:03 UTC.

Краткий прогноз Мартуни на 9 часов

AUTOTAF.ME 37808 020800Z 0209/0218 VRB02MPS 0100 HZ OVC001

Детальный прогноз Мартуни на 24 часа

AUTOTAF.ME 37808 020800Z 0209/0309 VRB02MPS 0100 HZ OVC001 TXM273/0209Z TNM273/0209Z

Подробный табличный прогноз Мартуни

Для получения пояснительной информации подведите курсор мыши к названию столбца

UTC SFC WIND
°, MPS 
SQ
MPS
SFC
VIS
WX CLD L
M AGL
CLD M
CLD H

M AGL
FZLVL
M AGL
ICE TURB SFC T
°С
SFC TD
°С
SFC RH
%
QNH
HPA
WIND/T APCP
MM/
03 HR
K
F
LI
PTS


Широта 40.1°, долгота 45.3°, высота 1945 м абс. Средняя высота рельефа местности 0 м абс.
Прогнозы обновляются четыре раза в сутки: в 02, 08, 14, 20 ч всемирного времени.

Примечания (кликните для просмотра)

Смотрите также:
Карта фактических гроз в окрестностях Мартуни


Выбрать прогноз по другой модели Мартуни Онлайн-сводка гроз по Мартуни (для РФ и ближнего зарубежья)

Прогноз предназначен для личного научно-познавательного использования частными лицами и не предназначен для принятия важных решений и выполнения реальных полётов воздушных судов
Представленная на данном сайте метеорологическая информация носит обзорно-консультативный характер, основана на данных автоматизированных компьютерных расчётов мировых метеорологических центров и не проходит контроль персоналом, в связи с этим администрация сайта не несёт ответственности за указанную информацию.
Официальным источником метеоинформации для полётов воздушных судов являются сводки (METAR, SPECI, TAF, SIGMET, GAMET, AIRMET), выпускаемые полномочным метеорологическим органом государства (в России - Росгидрометом).

При копировании или ином использовании любых материалов данного сайта ссылка на © meteocenter.asia обязательна.
0.29/0.3